sensor_id;sensor_type;location;lat;lon;timestamp;P1;durP1;ratioP1;P2;durP2;ratioP2
6356;SDS011;3211;53.452;-2.264;2022-12-07T00:01:04;15.47;;;8.10;;
6356;SDS011;3211;53.452;-2.264;2022-12-07T00:03:32;11.80;;;7.53;;
6356;SDS011;3211;53.452;-2.264;2022-12-07T00:05:59;14.60;;;7.67;;
6356;SDS011;3211;53.452;-2.264;2022-12-07T00:08:28;16.50;;;7.90;;
6356;SDS011;3211;53.452;-2.264;2022-12-07T00:10:59;14.47;;;8.40;;
6356;SDS011;3211;53.452;-2.264;2022-12-07T00:13:27;17.23;;;7.30;;
6356;SDS011;3211;53.452;-2.264;2022-12-07T00:15:55;13.90;;;7.33;;
6356;SDS011;3211;53.452;-2.264;2022-12-07T00:18:25;16.97;;;9.10;;
6356;SDS011;3211;53.452;-2.264;2022-12-07T00:20:52;15.70;;;8.13;;
6356;SDS011;3211;53.452;-2.264;2022-12-07T00:23:19;16.87;;;7.50;;
6356;SDS011;3211;53.452;-2.264;2022-12-07T00:25:47;15.83;;;8.53;;
6356;SDS011;3211;53.452;-2.264;2022-12-07T00:28:14;14.20;;;9.70;;
6356;SDS011;3211;53.452;-2.264;2022-12-07T00:30:41;12.13;;;8.83;;
6356;SDS011;3211;53.452;-2.264;2022-12-07T00:33:08;16.98;;;10.40;;
6356;SDS011;3211;53.452;-2.264;2022-12-07T00:35:35;13.97;;;10.00;;
6356;SDS011;3211;53.452;-2.264;2022-12-07T00:38:02;13.77;;;9.70;;
6356;SDS011;3211;53.452;-2.264;2022-12-07T00:40:29;15.03;;;8.60;;
6356;SDS011;3211;53.452;-2.264;2022-12-07T00:42:57;14.87;;;9.63;;
6356;SDS011;3211;53.452;-2.264;2022-12-07T00:45:24;15.67;;;9.33;;
6356;SDS011;3211;53.452;-2.264;2022-12-07T00:47:51;13.10;;;9.73;;
6356;SDS011;3211;53.452;-2.264;2022-12-07T00:50:18;16.60;;;8.90;;
6356;SDS011;3211;53.452;-2.264;2022-12-07T00:52:45;14.93;;;9.33;;
6356;SDS011;3211;53.452;-2.264;2022-12-07T00:55:12;16.10;;;10.43;;
6356;SDS011;3211;53.452;-2.264;2022-12-07T00:57:39;18.53;;;8.43;;
6356;SDS011;3211;53.452;-2.264;2022-12-07T01:00:09;16.47;;;9.03;;
6356;SDS011;3211;53.452;-2.264;2022-12-07T01:02:36;16.13;;;8.27;;
6356;SDS011;3211;53.452;-2.264;2022-12-07T01:05:03;12.97;;;8.87;;
6356;SDS011;3211;53.452;-2.264;2022-12-07T01:07:30;15.60;;;7.83;;
6356;SDS011;3211;53.452;-2.264;2022-12-07T01:09:57;14.60;;;8.47;;
6356;SDS011;3211;53.452;-2.264;2022-12-07T01:12:24;17.53;;;9.53;;
6356;SDS011;3211;53.452;-2.264;2022-12-07T01:14:51;14.43;;;8.60;;
6356;SDS011;3211;53.452;-2.264;2022-12-07T01:17:19;21.07;;;10.53;;
6356;SDS011;3211;53.452;-2.264;2022-12-07T01:19:46;14.13;;;9.00;;
6356;SDS011;3211;53.452;-2.264;2022-12-07T01:22:13;12.17;;;8.60;;
6356;SDS011;3211;53.452;-2.264;2022-12-07T01:24:40;16.13;;;7.93;;
6356;SDS011;3211;53.452;-2.264;2022-12-07T01:27:07;16.80;;;9.20;;
6356;SDS011;3211;53.452;-2.264;2022-12-07T01:29:35;17.13;;;9.17;;
6356;SDS011;3211;53.452;-2.264;2022-12-07T01:32:02;18.27;;;8.90;;
6356;SDS011;3211;53.452;-2.264;2022-12-07T01:34:30;13.20;;;8.50;;
6356;SDS011;3211;53.452;-2.264;2022-12-07T01:36:57;15.60;;;8.30;;
6356;SDS011;3211;53.452;-2.264;2022-12-07T01:39:24;15.50;;;7.90;;
6356;SDS011;3211;53.452;-2.264;2022-12-07T01:41:52;18.40;;;8.60;;
6356;SDS011;3211;53.452;-2.264;2022-12-07T01:44:20;10.13;;;7.47;;
6356;SDS011;3211;53.452;-2.264;2022-12-07T01:46:48;13.33;;;8.37;;
6356;SDS011;3211;53.452;-2.264;2022-12-07T01:49:24;14.83;;;8.33;;
6356;SDS011;3211;53.452;-2.264;2022-12-07T01:51:57;11.47;;;7.47;;
6356;SDS011;3211;53.452;-2.264;2022-12-07T01:54:29;14.20;;;7.17;;
6356;SDS011;3211;53.452;-2.264;2022-12-07T01:56:57;15.13;;;7.70;;
6356;SDS011;3211;53.452;-2.264;2022-12-07T01:59:25;13.57;;;7.60;;
6356;SDS011;3211;53.452;-2.264;2022-12-07T02:01:52;8.97;;;6.60;;
6356;SDS011;3211;53.452;-2.264;2022-12-07T02:04:22;13.63;;;8.00;;
6356;SDS011;3211;53.452;-2.264;2022-12-07T02:06:50;16.13;;;6.63;;
6356;SDS011;3211;53.452;-2.264;2022-12-07T02:09:21;16.60;;;7.33;;
6356;SDS011;3211;53.452;-2.264;2022-12-07T02:11:48;13.10;;;7.80;;
6356;SDS011;3211;53.452;-2.264;2022-12-07T02:14:15;13.63;;;7.60;;
6356;SDS011;3211;53.452;-2.264;2022-12-07T02:16:46;16.40;;;7.40;;
6356;SDS011;3211;53.452;-2.264;2022-12-07T02:19:24;12.67;;;7.87;;
6356;SDS011;3211;53.452;-2.264;2022-12-07T02:22:25;12.63;;;7.43;;
6356;SDS011;3211;53.452;-2.264;2022-12-07T02:25:21;11.73;;;6.73;;
6356;SDS011;3211;53.452;-2.264;2022-12-07T02:28:01;12.70;;;7.10;;
6356;SDS011;3211;53.452;-2.264;2022-12-07T02:30:34;11.70;;;8.10;;
6356;SDS011;3211;53.452;-2.264;2022-12-07T02:33:07;12.00;;;7.00;;
6356;SDS011;3211;53.452;-2.264;2022-12-07T02:35:41;13.87;;;9.03;;
6356;SDS011;3211;53.452;-2.264;2022-12-07T02:38:11;11.43;;;7.70;;
6356;SDS011;3211;53.452;-2.264;2022-12-07T02:40:43;11.37;;;7.77;;
6356;SDS011;3211;53.452;-2.264;2022-12-07T02:43:16;13.83;;;7.67;;
6356;SDS011;3211;53.452;-2.264;2022-12-07T02:45:47;13.57;;;7.63;;
6356;SDS011;3211;53.452;-2.264;2022-12-07T02:48:16;14.07;;;7.87;;
6356;SDS011;3211;53.452;-2.264;2022-12-07T02:50:45;13.40;;;7.23;;
6356;SDS011;3211;53.452;-2.264;2022-12-07T02:53:33;15.53;;;7.67;;
6356;SDS011;3211;53.452;-2.264;2022-12-07T02:56:03;12.07;;;8.10;;
6356;SDS011;3211;53.452;-2.264;2022-12-07T02:58:37;12.00;;;8.33;;
6356;SDS011;3211;53.452;-2.264;2022-12-07T03:01:17;16.50;;;8.30;;
6356;SDS011;3211;53.452;-2.264;2022-12-07T03:03:56;13.50;;;7.57;;
6356;SDS011;3211;53.452;-2.264;2022-12-07T03:06:34;12.80;;;7.87;;
6356;SDS011;3211;53.452;-2.264;2022-12-07T03:09:10;14.03;;;7.50;;
6356;SDS011;3211;53.452;-2.264;2022-12-07T03:11:41;11.67;;;7.73;;
6356;SDS011;3211;53.452;-2.264;2022-12-07T03:14:13;11.30;;;7.57;;
6356;SDS011;3211;53.452;-2.264;2022-12-07T03:16:47;15.27;;;8.40;;
6356;SDS011;3211;53.452;-2.264;2022-12-07T03:19:20;18.13;;;7.87;;
6356;SDS011;3211;53.452;-2.264;2022-12-07T03:21:49;17.90;;;7.40;;
6356;SDS011;3211;53.452;-2.264;2022-12-07T03:24:22;10.30;;;7.43;;
6356;SDS011;3211;53.452;-2.264;2022-12-07T03:26:54;11.67;;;7.50;;
6356;SDS011;3211;53.452;-2.264;2022-12-07T03:29:26;18.57;;;8.70;;
6356;SDS011;3211;53.452;-2.264;2022-12-07T03:31:58;11.50;;;8.20;;
6356;SDS011;3211;53.452;-2.264;2022-12-07T03:34:32;15.87;;;8.03;;
6356;SDS011;3211;53.452;-2.264;2022-12-07T03:37:03;14.10;;;8.00;;
6356;SDS011;3211;53.452;-2.264;2022-12-07T03:39:34;12.48;;;7.15;;
6356;SDS011;3211;53.452;-2.264;2022-12-07T03:42:05;12.33;;;8.33;;
6356;SDS011;3211;53.452;-2.264;2022-12-07T03:44:34;14.87;;;7.97;;
6356;SDS011;3211;53.452;-2.264;2022-12-07T03:47:04;16.40;;;7.77;;
6356;SDS011;3211;53.452;-2.264;2022-12-07T03:49:37;16.50;;;8.60;;
6356;SDS011;3211;53.452;-2.264;2022-12-07T03:52:08;13.55;;;8.20;;
6356;SDS011;3211;53.452;-2.264;2022-12-07T03:54:44;14.73;;;8.70;;
6356;SDS011;3211;53.452;-2.264;2022-12-07T03:57:15;14.67;;;8.43;;
6356;SDS011;3211;53.452;-2.264;2022-12-07T03:59:44;14.83;;;7.73;;
6356;SDS011;3211;53.452;-2.264;2022-12-07T04:02:14;13.50;;;8.03;;
6356;SDS011;3211;53.452;-2.264;2022-12-07T04:04:41;15.60;;;7.63;;
6356;SDS011;3211;53.452;-2.264;2022-12-07T04:07:09;13.50;;;7.10;;
6356;SDS011;3211;53.452;-2.264;2022-12-07T04:09:37;19.90;;;8.00;;
6356;SDS011;3211;53.452;-2.264;2022-12-07T04:12:05;11.05;;;7.70;;
6356;SDS011;3211;53.452;-2.264;2022-12-07T04:14:32;14.50;;;7.80;;
6356;SDS011;3211;53.452;-2.264;2022-12-07T04:16:59;12.93;;;7.23;;
6356;SDS011;3211;53.452;-2.264;2022-12-07T04:19:28;14.07;;;7.15;;
6356;SDS011;3211;53.452;-2.264;2022-12-07T04:21:57;13.93;;;7.28;;
6356;SDS011;3211;53.452;-2.264;2022-12-07T04:24:25;13.23;;;7.00;;
6356;SDS011;3211;53.452;-2.264;2022-12-07T04:26:53;15.00;;;7.73;;
6356;SDS011;3211;53.452;-2.264;2022-12-07T04:29:20;16.00;;;7.80;;
6356;SDS011;3211;53.452;-2.264;2022-12-07T04:31:47;14.38;;;7.75;;
6356;SDS011;3211;53.452;-2.264;2022-12-07T04:34:15;15.37;;;7.37;;
6356;SDS011;3211;53.452;-2.264;2022-12-07T04:36:43;10.75;;;6.65;;
6356;SDS011;3211;53.452;-2.264;2022-12-07T04:39:13;16.17;;;7.05;;
6356;SDS011;3211;53.452;-2.264;2022-12-07T04:41:45;13.75;;;7.78;;
6356;SDS011;3211;53.452;-2.264;2022-12-07T04:44:12;11.75;;;7.40;;
6356;SDS011;3211;53.452;-2.264;2022-12-07T04:46:40;12.43;;;7.65;;
6356;SDS011;3211;53.452;-2.264;2022-12-07T04:49:07;12.57;;;6.75;;
6356;SDS011;3211;53.452;-2.264;2022-12-07T04:51:35;11.55;;;8.18;;
6356;SDS011;3211;53.452;-2.264;2022-12-07T04:54:03;17.67;;;7.30;;
6356;SDS011;3211;53.452;-2.264;2022-12-07T04:56:31;13.07;;;7.82;;
6356;SDS011;3211;53.452;-2.264;2022-12-07T04:58:59;12.32;;;7.80;;
6356;SDS011;3211;53.452;-2.264;2022-12-07T05:01:27;13.25;;;7.32;;
6356;SDS011;3211;53.452;-2.264;2022-12-07T05:03:54;14.68;;;7.75;;
6356;SDS011;3211;53.452;-2.264;2022-12-07T05:06:21;10.45;;;7.93;;
6356;SDS011;3211;53.452;-2.264;2022-12-07T05:08:48;12.05;;;6.82;;
6356;SDS011;3211;53.452;-2.264;2022-12-07T05:11:16;11.73;;;7.03;;
6356;SDS011;3211;53.452;-2.264;2022-12-07T05:13:57;13.27;;;7.38;;
6356;SDS011;3211;53.452;-2.264;2022-12-07T05:16:24;10.13;;;7.13;;
6356;SDS011;3211;53.452;-2.264;2022-12-07T05:18:52;11.73;;;7.80;;
6356;SDS011;3211;53.452;-2.264;2022-12-07T05:21:19;11.30;;;6.80;;
6356;SDS011;3211;53.452;-2.264;2022-12-07T05:23:46;10.70;;;6.85;;
6356;SDS011;3211;53.452;-2.264;2022-12-07T05:26:13;12.48;;;7.43;;
6356;SDS011;3211;53.452;-2.264;2022-12-07T05:28:41;8.77;;;7.05;;
6356;SDS011;3211;53.452;-2.264;2022-12-07T05:31:08;11.85;;;7.10;;
6356;SDS011;3211;53.452;-2.264;2022-12-07T05:33:35;12.50;;;7.38;;
6356;SDS011;3211;53.452;-2.264;2022-12-07T05:36:02;13.57;;;7.97;;
6356;SDS011;3211;53.452;-2.264;2022-12-07T05:38:30;14.52;;;7.53;;
6356;SDS011;3211;53.452;-2.264;2022-12-07T05:40:59;14.20;;;7.40;;
6356;SDS011;3211;53.452;-2.264;2022-12-07T05:43:27;11.27;;;7.10;;
6356;SDS011;3211;53.452;-2.264;2022-12-07T05:45:56;13.10;;;6.97;;
6356;SDS011;3211;53.452;-2.264;2022-12-07T05:48:23;12.00;;;7.40;;
6356;SDS011;3211;53.452;-2.264;2022-12-07T05:50:50;16.52;;;8.30;;
6356;SDS011;3211;53.452;-2.264;2022-12-07T05:53:18;12.60;;;7.53;;
6356;SDS011;3211;53.452;-2.264;2022-12-07T05:55:45;13.25;;;8.57;;
6356;SDS011;3211;53.452;-2.264;2022-12-07T05:58:12;15.27;;;8.03;;
6356;SDS011;3211;53.452;-2.264;2022-12-07T06:00:58;14.15;;;7.63;;
6356;SDS011;3211;53.452;-2.264;2022-12-07T06:03:24;13.35;;;7.22;;
6356;SDS011;3211;53.452;-2.264;2022-12-07T06:05:51;9.75;;;7.50;;
6356;SDS011;3211;53.452;-2.264;2022-12-07T06:08:19;12.25;;;6.72;;
6356;SDS011;3211;53.452;-2.264;2022-12-07T06:10:46;12.77;;;8.40;;
6356;SDS011;3211;53.452;-2.264;2022-12-07T06:13:35;10.75;;;7.57;;
6356;SDS011;3211;53.452;-2.264;2022-12-07T06:16:03;14.20;;;7.90;;
6356;SDS011;3211;53.452;-2.264;2022-12-07T06:18:30;13.37;;;7.93;;
6356;SDS011;3211;53.452;-2.264;2022-12-07T06:20:57;12.35;;;7.45;;
6356;SDS011;3211;53.452;-2.264;2022-12-07T06:23:25;9.57;;;6.93;;
6356;SDS011;3211;53.452;-2.264;2022-12-07T06:25:52;12.93;;;7.68;;
6356;SDS011;3211;53.452;-2.264;2022-12-07T06:28:19;14.87;;;7.13;;
6356;SDS011;3211;53.452;-2.264;2022-12-07T06:30:46;17.60;;;7.67;;
6356;SDS011;3211;53.452;-2.264;2022-12-07T06:33:14;12.88;;;7.38;;
6356;SDS011;3211;53.452;-2.264;2022-12-07T06:35:41;13.10;;;7.50;;
6356;SDS011;3211;53.452;-2.264;2022-12-07T06:38:08;11.83;;;7.67;;
6356;SDS011;3211;53.452;-2.264;2022-12-07T06:40:35;13.15;;;7.63;;
6356;SDS011;3211;53.452;-2.264;2022-12-07T06:43:02;12.10;;;7.38;;
6356;SDS011;3211;53.452;-2.264;2022-12-07T06:45:29;10.88;;;7.20;;
6356;SDS011;3211;53.452;-2.264;2022-12-07T06:47:56;12.10;;;6.53;;
6356;SDS011;3211;53.452;-2.264;2022-12-07T06:50:24;10.63;;;7.72;;
6356;SDS011;3211;53.452;-2.264;2022-12-07T06:52:51;11.02;;;7.45;;
6356;SDS011;3211;53.452;-2.264;2022-12-07T06:55:18;13.43;;;8.17;;
6356;SDS011;3211;53.452;-2.264;2022-12-07T06:57:45;12.30;;;7.80;;
6356;SDS011;3211;53.452;-2.264;2022-12-07T07:00:13;12.57;;;7.37;;
6356;SDS011;3211;53.452;-2.264;2022-12-07T07:02:41;12.30;;;7.57;;
6356;SDS011;3211;53.452;-2.264;2022-12-07T07:05:08;12.77;;;7.72;;
6356;SDS011;3211;53.452;-2.264;2022-12-07T07:07:36;13.73;;;7.95;;
6356;SDS011;3211;53.452;-2.264;2022-12-07T07:10:03;16.17;;;8.32;;
6356;SDS011;3211;53.452;-2.264;2022-12-07T07:12:31;15.80;;;7.72;;
6356;SDS011;3211;53.452;-2.264;2022-12-07T07:14:58;16.77;;;9.00;;
6356;SDS011;3211;53.452;-2.264;2022-12-07T07:17:25;15.65;;;8.35;;
6356;SDS011;3211;53.452;-2.264;2022-12-07T07:19:52;12.80;;;8.00;;
6356;SDS011;3211;53.452;-2.264;2022-12-07T07:22:19;10.60;;;6.90;;
6356;SDS011;3211;53.452;-2.264;2022-12-07T07:24:47;12.43;;;8.10;;
6356;SDS011;3211;53.452;-2.264;2022-12-07T07:27:14;16.10;;;7.80;;
6356;SDS011;3211;53.452;-2.264;2022-12-07T07:29:41;13.68;;;8.20;;
6356;SDS011;3211;53.452;-2.264;2022-12-07T07:32:08;14.32;;;8.57;;
6356;SDS011;3211;53.452;-2.264;2022-12-07T07:34:35;14.68;;;8.00;;
6356;SDS011;3211;53.452;-2.264;2022-12-07T07:37:02;13.55;;;8.75;;
6356;SDS011;3211;53.452;-2.264;2022-12-07T07:39:30;15.18;;;8.90;;
6356;SDS011;3211;53.452;-2.264;2022-12-07T07:41:59;14.52;;;8.50;;
6356;SDS011;3211;53.452;-2.264;2022-12-07T07:44:26;16.33;;;7.77;;
6356;SDS011;3211;53.452;-2.264;2022-12-07T07:46:53;18.80;;;9.47;;
6356;SDS011;3211;53.452;-2.264;2022-12-07T07:49:20;15.33;;;8.90;;
6356;SDS011;3211;53.452;-2.264;2022-12-07T07:51:47;12.23;;;8.40;;
6356;SDS011;3211;53.452;-2.264;2022-12-07T07:54:14;13.30;;;8.63;;
6356;SDS011;3211;53.452;-2.264;2022-12-07T07:56:41;10.70;;;7.20;;
6356;SDS011;3211;53.452;-2.264;2022-12-07T07:59:10;12.13;;;8.00;;
6356;SDS011;3211;53.452;-2.264;2022-12-07T08:01:37;12.00;;;7.13;;
6356;SDS011;3211;53.452;-2.264;2022-12-07T08:04:04;11.50;;;7.10;;
6356;SDS011;3211;53.452;-2.264;2022-12-07T08:06:31;12.07;;;7.30;;
6356;SDS011;3211;53.452;-2.264;2022-12-07T08:08:58;12.68;;;7.70;;
6356;SDS011;3211;53.452;-2.264;2022-12-07T08:11:25;12.07;;;8.10;;
6356;SDS011;3211;53.452;-2.264;2022-12-07T08:13:52;15.13;;;8.60;;
6356;SDS011;3211;53.452;-2.264;2022-12-07T08:16:20;14.70;;;7.78;;
6356;SDS011;3211;53.452;-2.264;2022-12-07T08:18:47;13.55;;;8.27;;
6356;SDS011;3211;53.452;-2.264;2022-12-07T08:21:14;13.47;;;7.70;;
6356;SDS011;3211;53.452;-2.264;2022-12-07T08:23:42;10.07;;;7.80;;
6356;SDS011;3211;53.452;-2.264;2022-12-07T08:26:09;12.07;;;7.70;;
6356;SDS011;3211;53.452;-2.264;2022-12-07T08:28:37;15.65;;;9.35;;
6356;SDS011;3211;53.452;-2.264;2022-12-07T08:31:06;19.92;;;9.43;;
6356;SDS011;3211;53.452;-2.264;2022-12-07T08:33:36;13.38;;;9.77;;
6356;SDS011;3211;53.452;-2.264;2022-12-07T08:36:03;20.90;;;10.68;;
6356;SDS011;3211;53.452;-2.264;2022-12-07T08:38:51;25.20;;;10.90;;
6356;SDS011;3211;53.452;-2.264;2022-12-07T08:41:36;18.85;;;10.95;;
6356;SDS011;3211;53.452;-2.264;2022-12-07T08:44:03;18.20;;;10.02;;
6356;SDS011;3211;53.452;-2.264;2022-12-07T08:46:31;13.23;;;9.02;;
6356;SDS011;3211;53.452;-2.264;2022-12-07T08:49:04;14.47;;;9.10;;
6356;SDS011;3211;53.452;-2.264;2022-12-07T08:51:35;11.30;;;8.40;;
6356;SDS011;3211;53.452;-2.264;2022-12-07T08:54:03;13.68;;;8.90;;
6356;SDS011;3211;53.452;-2.264;2022-12-07T08:56:32;19.63;;;9.60;;
6356;SDS011;3211;53.452;-2.264;2022-12-07T08:59:00;17.77;;;9.30;;
6356;SDS011;3211;53.452;-2.264;2022-12-07T09:01:27;15.93;;;9.97;;
6356;SDS011;3211;53.452;-2.264;2022-12-07T09:03:54;16.25;;;10.20;;
6356;SDS011;3211;53.452;-2.264;2022-12-07T09:06:23;21.60;;;10.50;;
6356;SDS011;3211;53.452;-2.264;2022-12-07T09:08:51;17.15;;;9.40;;
6356;SDS011;3211;53.452;-2.264;2022-12-07T09:11:21;15.23;;;10.40;;
6356;SDS011;3211;53.452;-2.264;2022-12-07T09:13:48;18.48;;;10.75;;
6356;SDS011;3211;53.452;-2.264;2022-12-07T09:16:16;17.23;;;10.20;;
6356;SDS011;3211;53.452;-2.264;2022-12-07T09:18:43;15.70;;;10.60;;
6356;SDS011;3211;53.452;-2.264;2022-12-07T09:21:10;19.88;;;10.00;;
6356;SDS011;3211;53.452;-2.264;2022-12-07T09:23:38;17.38;;;8.95;;
6356;SDS011;3211;53.452;-2.264;2022-12-07T09:26:07;14.68;;;10.32;;
6356;SDS011;3211;53.452;-2.264;2022-12-07T09:28:34;15.55;;;9.48;;
6356;SDS011;3211;53.452;-2.264;2022-12-07T09:31:02;20.80;;;10.20;;
6356;SDS011;3211;53.452;-2.264;2022-12-07T09:33:30;15.07;;;10.23;;
6356;SDS011;3211;53.452;-2.264;2022-12-07T09:35:57;19.23;;;10.73;;
6356;SDS011;3211;53.452;-2.264;2022-12-07T09:38:24;20.27;;;9.82;;
6356;SDS011;3211;53.452;-2.264;2022-12-07T09:40:53;18.23;;;10.82;;
6356;SDS011;3211;53.452;-2.264;2022-12-07T09:43:21;19.90;;;9.50;;
6356;SDS011;3211;53.452;-2.264;2022-12-07T09:45:51;18.17;;;10.15;;
6356;SDS011;3211;53.452;-2.264;2022-12-07T09:48:20;16.10;;;9.73;;
6356;SDS011;3211;53.452;-2.264;2022-12-07T09:50:49;17.63;;;9.63;;
6356;SDS011;3211;53.452;-2.264;2022-12-07T09:53:25;17.23;;;9.17;;
6356;SDS011;3211;53.452;-2.264;2022-12-07T09:55:55;17.80;;;8.82;;
6356;SDS011;3211;53.452;-2.264;2022-12-07T09:58:24;22.80;;;10.07;;
6356;SDS011;3211;53.452;-2.264;2022-12-07T10:00:52;17.92;;;10.68;;
6356;SDS011;3211;53.452;-2.264;2022-12-07T10:03:21;15.43;;;9.20;;
6356;SDS011;3211;53.452;-2.264;2022-12-07T10:05:49;15.23;;;8.57;;
6356;SDS011;3211;53.452;-2.264;2022-12-07T10:08:17;19.45;;;9.68;;
6356;SDS011;3211;53.452;-2.264;2022-12-07T10:10:46;20.20;;;10.10;;
6356;SDS011;3211;53.452;-2.264;2022-12-07T10:13:19;13.57;;;9.43;;
6356;SDS011;3211;53.452;-2.264;2022-12-07T10:15:49;14.50;;;8.77;;
6356;SDS011;3211;53.452;-2.264;2022-12-07T10:18:18;20.30;;;9.10;;
6356;SDS011;3211;53.452;-2.264;2022-12-07T10:21:01;15.17;;;10.20;;
6356;SDS011;3211;53.452;-2.264;2022-12-07T10:23:33;12.43;;;8.20;;
6356;SDS011;3211;53.452;-2.264;2022-12-07T10:26:09;12.87;;;8.60;;
6356;SDS011;3211;53.452;-2.264;2022-12-07T10:28:49;14.30;;;8.90;;
6356;SDS011;3211;53.452;-2.264;2022-12-07T10:31:16;12.47;;;9.53;;
6356;SDS011;3211;53.452;-2.264;2022-12-07T10:33:49;16.33;;;9.53;;
6356;SDS011;3211;53.452;-2.264;2022-12-07T10:36:20;14.40;;;8.83;;
6356;SDS011;3211;53.452;-2.264;2022-12-07T10:38:50;14.33;;;8.30;;
6356;SDS011;3211;53.452;-2.264;2022-12-07T10:41:19;14.10;;;7.93;;
6356;SDS011;3211;53.452;-2.264;2022-12-07T10:43:47;15.47;;;8.77;;
6356;SDS011;3211;53.452;-2.264;2022-12-07T10:46:29;14.07;;;8.70;;
6356;SDS011;3211;53.452;-2.264;2022-12-07T10:49:38;16.00;;;8.83;;
6356;SDS011;3211;53.452;-2.264;2022-12-07T10:52:22;14.30;;;8.60;;
6356;SDS011;3211;53.452;-2.264;2022-12-07T10:55:03;26.70;;;10.23;;
6356;SDS011;3211;53.452;-2.264;2022-12-07T10:57:45;21.53;;;8.80;;
6356;SDS011;3211;53.452;-2.264;2022-12-07T11:00:22;25.47;;;10.13;;
6356;SDS011;3211;53.452;-2.264;2022-12-07T11:02:54;17.80;;;9.60;;
6356;SDS011;3211;53.452;-2.264;2022-12-07T11:05:44;19.43;;;11.30;;
6356;SDS011;3211;53.452;-2.264;2022-12-07T11:08:21;16.03;;;10.47;;
6356;SDS011;3211;53.452;-2.264;2022-12-07T11:11:04;15.20;;;8.97;;
6356;SDS011;3211;53.452;-2.264;2022-12-07T11:13:37;18.47;;;10.63;;
6356;SDS011;3211;53.452;-2.264;2022-12-07T11:16:26;13.77;;;9.90;;
6356;SDS011;3211;53.452;-2.264;2022-12-07T11:19:00;21.50;;;9.30;;
6356;SDS011;3211;53.452;-2.264;2022-12-07T11:21:40;23.70;;;10.33;;
6356;SDS011;3211;53.452;-2.264;2022-12-07T11:24:15;15.57;;;8.93;;
6356;SDS011;3211;53.452;-2.264;2022-12-07T11:26:57;15.43;;;9.07;;
6356;SDS011;3211;53.452;-2.264;2022-12-07T11:29:43;18.10;;;8.70;;
6356;SDS011;3211;53.452;-2.264;2022-12-07T11:32:22;19.73;;;8.37;;
6356;SDS011;3211;53.452;-2.264;2022-12-07T11:35:00;16.03;;;8.50;;
6356;SDS011;3211;53.452;-2.264;2022-12-07T11:37:35;14.57;;;7.30;;
6356;SDS011;3211;53.452;-2.264;2022-12-07T11:40:11;13.67;;;8.90;;
6356;SDS011;3211;53.452;-2.264;2022-12-07T11:42:44;13.20;;;7.23;;
6356;SDS011;3211;53.452;-2.264;2022-12-07T11:45:19;9.20;;;6.50;;
6356;SDS011;3211;53.452;-2.264;2022-12-07T11:47:53;15.33;;;8.20;;
6356;SDS011;3211;53.452;-2.264;2022-12-07T11:50:26;13.03;;;7.43;;
6356;SDS011;3211;53.452;-2.264;2022-12-07T11:52:58;17.13;;;7.20;;
6356;SDS011;3211;53.452;-2.264;2022-12-07T11:55:30;12.17;;;7.10;;
6356;SDS011;3211;53.452;-2.264;2022-12-07T11:58:15;13.93;;;7.40;;
6356;SDS011;3211;53.452;-2.264;2022-12-07T12:01:00;10.40;;;7.33;;
6356;SDS011;3211;53.452;-2.264;2022-12-07T12:03:40;18.10;;;8.33;;
6356;SDS011;3211;53.452;-2.264;2022-12-07T12:06:10;12.60;;;8.30;;
6356;SDS011;3211;53.452;-2.264;2022-12-07T12:08:38;13.40;;;8.70;;
6356;SDS011;3211;53.452;-2.264;2022-12-07T12:11:14;14.27;;;7.80;;
6356;SDS011;3211;53.452;-2.264;2022-12-07T12:14:17;12.27;;;8.67;;
6356;SDS011;3211;53.452;-2.264;2022-12-07T12:17:13;15.10;;;8.43;;
6356;SDS011;3211;53.452;-2.264;2022-12-07T12:20:03;14.00;;;8.17;;
6356;SDS011;3211;53.452;-2.264;2022-12-07T12:22:38;13.17;;;8.40;;
6356;SDS011;3211;53.452;-2.264;2022-12-07T12:25:19;11.60;;;8.50;;
6356;SDS011;3211;53.452;-2.264;2022-12-07T12:27:50;11.47;;;7.40;;
6356;SDS011;3211;53.452;-2.264;2022-12-07T12:30:30;13.80;;;7.87;;
6356;SDS011;3211;53.452;-2.264;2022-12-07T12:33:04;11.07;;;6.93;;
6356;SDS011;3211;53.452;-2.264;2022-12-07T12:35:41;15.80;;;7.70;;
6356;SDS011;3211;53.452;-2.264;2022-12-07T12:44:41;18.27;;;6.80;;
6356;SDS011;3211;53.452;-2.264;2022-12-07T12:50:22;8.73;;;4.80;;
6356;SDS011;3211;53.452;-2.264;2022-12-07T12:53:03;9.33;;;5.70;;
6356;SDS011;3211;53.452;-2.264;2022-12-07T12:55:46;6.70;;;4.70;;
6356;SDS011;3211;53.452;-2.264;2022-12-07T12:58:32;10.27;;;5.00;;
6356;SDS011;3211;53.452;-2.264;2022-12-07T13:07:10;10.80;;;5.00;;
6356;SDS011;3211;53.452;-2.264;2022-12-07T13:09:43;8.93;;;5.10;;
6356;SDS011;3211;53.452;-2.264;2022-12-07T13:12:12;8.93;;;4.70;;
6356;SDS011;3211;53.452;-2.264;2022-12-07T13:14:43;9.33;;;5.20;;
6356;SDS011;3211;53.452;-2.264;2022-12-07T13:23:16;8.73;;;5.10;;
6356;SDS011;3211;53.452;-2.264;2022-12-07T13:25:58;13.00;;;7.13;;
6356;SDS011;3211;53.452;-2.264;2022-12-07T13:28:32;13.97;;;6.50;;
6356;SDS011;3211;53.452;-2.264;2022-12-07T13:31:12;9.33;;;4.97;;
6356;SDS011;3211;53.452;-2.264;2022-12-07T13:33:50;9.67;;;4.67;;
6356;SDS011;3211;53.452;-2.264;2022-12-07T13:36:21;7.67;;;5.00;;
6356;SDS011;3211;53.452;-2.264;2022-12-07T13:38:50;9.63;;;5.40;;
6356;SDS011;3211;53.452;-2.264;2022-12-07T13:41:21;19.80;;;12.13;;
6356;SDS011;3211;53.452;-2.264;2022-12-07T13:43:51;8.27;;;4.83;;
6356;SDS011;3211;53.452;-2.264;2022-12-07T13:46:22;15.00;;;4.33;;
6356;SDS011;3211;53.452;-2.264;2022-12-07T13:48:53;13.03;;;5.10;;
6356;SDS011;3211;53.452;-2.264;2022-12-07T13:51:22;6.73;;;4.43;;
6356;SDS011;3211;53.452;-2.264;2022-12-07T13:53:51;7.27;;;4.30;;
6356;SDS011;3211;53.452;-2.264;2022-12-07T13:56:22;7.77;;;4.90;;
6356;SDS011;3211;53.452;-2.264;2022-12-07T13:58:54;6.70;;;5.00;;
6356;SDS011;3211;53.452;-2.264;2022-12-07T14:01:21;11.30;;;8.33;;
6356;SDS011;3211;53.452;-2.264;2022-12-07T14:03:48;7.97;;;5.70;;
6356;SDS011;3211;53.452;-2.264;2022-12-07T14:06:17;12.70;;;7.70;;
6356;SDS011;3211;53.452;-2.264;2022-12-07T14:09:05;11.47;;;5.90;;
6356;SDS011;3211;53.452;-2.264;2022-12-07T14:11:46;8.23;;;5.20;;
6356;SDS011;3211;53.452;-2.264;2022-12-07T14:14:17;8.23;;;5.60;;
6356;SDS011;3211;53.452;-2.264;2022-12-07T14:16:54;8.20;;;4.50;;
6356;SDS011;3211;53.452;-2.264;2022-12-07T14:22:23;7.43;;;4.57;;
6356;SDS011;3211;53.452;-2.264;2022-12-07T14:24:58;8.30;;;4.73;;
6356;SDS011;3211;53.452;-2.264;2022-12-07T14:27:30;7.57;;;4.47;;
6356;SDS011;3211;53.452;-2.264;2022-12-07T14:29:59;8.97;;;4.93;;
6356;SDS011;3211;53.452;-2.264;2022-12-07T14:32:27;8.40;;;4.13;;
6356;SDS011;3211;53.452;-2.264;2022-12-07T14:34:56;8.20;;;4.33;;
6356;SDS011;3211;53.452;-2.264;2022-12-07T14:37:25;8.07;;;5.40;;
6356;SDS011;3211;53.452;-2.264;2022-12-07T14:39:52;7.47;;;4.20;;
6356;SDS011;3211;53.452;-2.264;2022-12-07T14:42:19;10.87;;;4.30;;
6356;SDS011;3211;53.452;-2.264;2022-12-07T14:44:49;8.47;;;3.70;;
6356;SDS011;3211;53.452;-2.264;2022-12-07T14:47:16;9.67;;;3.90;;
6356;SDS011;3211;53.452;-2.264;2022-12-07T14:49:43;8.83;;;3.97;;
6356;SDS011;3211;53.452;-2.264;2022-12-07T14:52:12;8.10;;;3.83;;
6356;SDS011;3211;53.452;-2.264;2022-12-07T14:54:42;7.37;;;3.30;;
6356;SDS011;3211;53.452;-2.264;2022-12-07T14:57:09;7.03;;;2.70;;
6356;SDS011;3211;53.452;-2.264;2022-12-07T14:59:37;8.00;;;2.90;;
6356;SDS011;3211;53.452;-2.264;2022-12-07T15:02:05;5.90;;;2.83;;
6356;SDS011;3211;53.452;-2.264;2022-12-07T15:04:33;8.33;;;3.10;;
6356;SDS011;3211;53.452;-2.264;2022-12-07T15:07:01;5.23;;;3.17;;
6356;SDS011;3211;53.452;-2.264;2022-12-07T15:09:29;10.63;;;3.00;;
6356;SDS011;3211;53.452;-2.264;2022-12-07T15:11:56;7.50;;;4.33;;
6356;SDS011;3211;53.452;-2.264;2022-12-07T15:14:23;9.60;;;4.20;;
6356;SDS011;3211;53.452;-2.264;2022-12-07T15:16:50;8.73;;;2.77;;
6356;SDS011;3211;53.452;-2.264;2022-12-07T15:19:19;5.37;;;2.77;;
6356;SDS011;3211;53.452;-2.264;2022-12-07T15:21:50;8.60;;;3.50;;
6356;SDS011;3211;53.452;-2.264;2022-12-07T15:24:17;10.03;;;3.63;;
6356;SDS011;3211;53.452;-2.264;2022-12-07T15:26:45;7.90;;;3.20;;
6356;SDS011;3211;53.452;-2.264;2022-12-07T15:29:12;2.83;;;2.30;;
6356;SDS011;3211;53.452;-2.264;2022-12-07T15:31:41;7.23;;;2.83;;
6356;SDS011;3211;53.452;-2.264;2022-12-07T15:34:08;6.73;;;2.60;;